sensor_id;sensor_type;location;lat;lon;timestamp;temperature;humidity
39079;DHT22;24829;49.208;12.080;2022-10-16T00:00:44;14.50;99.90
39079;DHT22;24829;49.208;12.080;2022-10-16T00:03:10;14.50;99.90
39079;DHT22;24829;49.208;12.080;2022-10-16T00:05:41;14.40;99.90
39079;DHT22;24829;49.208;12.080;2022-10-16T00:08:08;14.40;99.90
39079;DHT22;24829;49.208;12.080;2022-10-16T00:10:34;14.40;99.90
39079;DHT22;24829;49.208;12.080;2022-10-16T00:12:59;14.40;99.90
39079;DHT22;24829;49.208;12.080;2022-10-16T00:15:25;14.40;99.90
39079;DHT22;24829;49.208;12.080;2022-10-16T00:17:51;14.40;99.90
39079;DHT22;24829;49.208;12.080;2022-10-16T00:20:16;14.30;99.90
39079;DHT22;24829;49.208;12.080;2022-10-16T00:22:42;14.40;99.90
39079;DHT22;24829;49.208;12.080;2022-10-16T00:25:07;14.30;99.90
39079;DHT22;24829;49.208;12.080;2022-10-16T00:27:34;14.40;99.90
39079;DHT22;24829;49.208;12.080;2022-10-16T00:29:59;14.30;99.90
39079;DHT22;24829;49.208;12.080;2022-10-16T00:32:25;14.40;99.90
39079;DHT22;24829;49.208;12.080;2022-10-16T00:34:51;14.30;99.90
39079;DHT22;24829;49.208;12.080;2022-10-16T00:37:16;14.40;99.90
39079;DHT22;24829;49.208;12.080;2022-10-16T00:39:42;14.40;99.90
39079;DHT22;24829;49.208;12.080;2022-10-16T00:42:13;14.40;99.90
39079;DHT22;24829;49.208;12.080;2022-10-16T00:47:32;14.40;99.90
39079;DHT22;24829;49.208;12.080;2022-10-16T00:52:50;14.30;99.90
39079;DHT22;24829;49.208;12.080;2022-10-16T00:55:16;14.30;99.90
39079;DHT22;24829;49.208;12.080;2022-10-16T00:57:44;14.40;99.90
39079;DHT22;24829;49.208;12.080;2022-10-16T01:00:12;14.30;99.90
39079;DHT22;24829;49.208;12.080;2022-10-16T01:02:38;14.30;99.90
39079;DHT22;24829;49.208;12.080;2022-10-16T01:05:05;14.30;99.90
39079;DHT22;24829;49.208;12.080;2022-10-16T01:07:43;14.40;99.90
39079;DHT22;24829;49.208;12.080;2022-10-16T01:10:15;14.40;99.90
39079;DHT22;24829;49.208;12.080;2022-10-16T01:12:47;14.40;99.90
39079;DHT22;24829;49.208;12.080;2022-10-16T01:20:31;14.30;99.90
39079;DHT22;24829;49.208;12.080;2022-10-16T01:29:07;14.30;99.90
39079;DHT22;24829;49.208;12.080;2022-10-16T01:31:29;14.40;99.90
39079;DHT22;24829;49.208;12.080;2022-10-16T01:34:09;14.30;99.90
39079;DHT22;24829;49.208;12.080;2022-10-16T01:36:40;14.30;99.90
39079;DHT22;24829;49.208;12.080;2022-10-16T01:39:09;14.40;99.90
39079;DHT22;24829;49.208;12.080;2022-10-16T01:41:43;14.30;99.90
39079;DHT22;24829;49.208;12.080;2022-10-16T01:44:16;14.40;99.90
39079;DHT22;24829;49.208;12.080;2022-10-16T01:46:46;14.40;99.90
39079;DHT22;24829;49.208;12.080;2022-10-16T01:49:14;14.30;99.90
39079;DHT22;24829;49.208;12.080;2022-10-16T01:51:42;14.30;99.90
39079;DHT22;24829;49.208;12.080;2022-10-16T01:54:09;14.40;99.90
39079;DHT22;24829;49.208;12.080;2022-10-16T01:56:37;14.30;99.90
39079;DHT22;24829;49.208;12.080;2022-10-16T01:59:11;14.30;99.90
39079;DHT22;24829;49.208;12.080;2022-10-16T02:01:40;14.30;99.90
39079;DHT22;24829;49.208;12.080;2022-10-16T02:04:18;14.30;99.90
39079;DHT22;24829;49.208;12.080;2022-10-16T02:06:44;14.30;99.90
39079;DHT22;24829;49.208;12.080;2022-10-16T02:09:10;14.30;99.90
39079;DHT22;24829;49.208;12.080;2022-10-16T02:11:36;14.30;99.90
39079;DHT22;24829;49.208;12.080;2022-10-16T02:14:04;14.30;99.90
39079;DHT22;24829;49.208;12.080;2022-10-16T02:16:42;14.20;99.90
39079;DHT22;24829;49.208;12.080;2022-10-16T02:19:09;14.30;99.90
39079;DHT22;24829;49.208;12.080;2022-10-16T02:21:48;14.30;99.90
39079;DHT22;24829;49.208;12.080;2022-10-16T02:26:56;14.20;99.90
39079;DHT22;24829;49.208;12.080;2022-10-16T02:29:26;14.20;99.90
39079;DHT22;24829;49.208;12.080;2022-10-16T02:32:01;14.20;99.90
39079;DHT22;24829;49.208;12.080;2022-10-16T02:34:28;14.20;99.90
39079;DHT22;24829;49.208;12.080;2022-10-16T02:36:56;14.20;99.90
39079;DHT22;24829;49.208;12.080;2022-10-16T02:39:22;14.20;99.90
39079;DHT22;24829;49.208;12.080;2022-10-16T02:41:48;14.20;99.90
39079;DHT22;24829;49.208;12.080;2022-10-16T02:44:14;14.20;99.90
39079;DHT22;24829;49.208;12.080;2022-10-16T02:46:40;14.20;99.90
39079;DHT22;24829;49.208;12.080;2022-10-16T02:49:05;14.20;99.90
39079;DHT22;24829;49.208;12.080;2022-10-16T02:51:31;14.20;99.90
39079;DHT22;24829;49.208;12.080;2022-10-16T02:53:56;14.20;99.90
39079;DHT22;24829;49.208;12.080;2022-10-16T02:56:22;14.20;99.90
39079;DHT22;24829;49.208;12.080;2022-10-16T02:58:47;14.10;99.90
39079;DHT22;24829;49.208;12.080;2022-10-16T03:01:13;14.20;99.90
39079;DHT22;24829;49.208;12.080;2022-10-16T03:03:39;14.20;99.90
39079;DHT22;24829;49.208;12.080;2022-10-16T03:06:05;14.20;99.90
39079;DHT22;24829;49.208;12.080;2022-10-16T03:08:31;14.20;99.90
39079;DHT22;24829;49.208;12.080;2022-10-16T03:10:57;14.20;99.90
39079;DHT22;24829;49.208;12.080;2022-10-16T03:13:22;14.20;99.90
39079;DHT22;24829;49.208;12.080;2022-10-16T03:15:48;14.10;99.90
39079;DHT22;24829;49.208;12.080;2022-10-16T03:18:13;14.20;99.90
39079;DHT22;24829;49.208;12.080;2022-10-16T03:20:39;14.10;99.90
39079;DHT22;24829;49.208;12.080;2022-10-16T03:23:04;14.20;99.90
39079;DHT22;24829;49.208;12.080;2022-10-16T03:25:30;14.10;99.90
39079;DHT22;24829;49.208;12.080;2022-10-16T03:27:56;14.10;99.90
39079;DHT22;24829;49.208;12.080;2022-10-16T03:30:21;14.20;99.90
39079;DHT22;24829;49.208;12.080;2022-10-16T03:32:47;14.20;99.90
39079;DHT22;24829;49.208;12.080;2022-10-16T03:35:12;14.10;99.90
39079;DHT22;24829;49.208;12.080;2022-10-16T03:37:38;14.20;99.90
39079;DHT22;24829;49.208;12.080;2022-10-16T03:40:05;14.20;99.90
39079;DHT22;24829;49.208;12.080;2022-10-16T03:42:30;14.20;99.90
39079;DHT22;24829;49.208;12.080;2022-10-16T03:44:56;14.10;99.90
39079;DHT22;24829;49.208;12.080;2022-10-16T03:47:21;14.20;99.90
39079;DHT22;24829;49.208;12.080;2022-10-16T03:49:49;14.10;99.90
39079;DHT22;24829;49.208;12.080;2022-10-16T03:52:14;14.20;99.90
39079;DHT22;24829;49.208;12.080;2022-10-16T03:54:40;14.10;99.90
39079;DHT22;24829;49.208;12.080;2022-10-16T03:57:06;14.10;99.90
39079;DHT22;24829;49.208;12.080;2022-10-16T03:59:32;14.10;99.90
39079;DHT22;24829;49.208;12.080;2022-10-16T04:01:57;14.10;99.90
39079;DHT22;24829;49.208;12.080;2022-10-16T04:04:23;14.10;99.90
39079;DHT22;24829;49.208;12.080;2022-10-16T04:06:50;14.10;99.90
39079;DHT22;24829;49.208;12.080;2022-10-16T04:09:15;14.10;99.90
39079;DHT22;24829;49.208;12.080;2022-10-16T04:11:41;14.10;99.90
39079;DHT22;24829;49.208;12.080;2022-10-16T04:14:07;14.10;99.90
39079;DHT22;24829;49.208;12.080;2022-10-16T04:16:32;14.10;99.90
39079;DHT22;24829;49.208;12.080;2022-10-16T04:18:58;14.10;99.90
39079;DHT22;24829;49.208;12.080;2022-10-16T04:21:23;14.10;99.90
39079;DHT22;24829;49.208;12.080;2022-10-16T04:23:49;14.10;99.90
39079;DHT22;24829;49.208;12.080;2022-10-16T04:26:14;14.10;99.90
39079;DHT22;24829;49.208;12.080;2022-10-16T04:28:40;14.00;99.90
39079;DHT22;24829;49.208;12.080;2022-10-16T04:31:06;14.00;99.90
39079;DHT22;24829;49.208;12.080;2022-10-16T04:33:32;14.00;99.90
39079;DHT22;24829;49.208;12.080;2022-10-16T04:35:59;13.90;99.90
39079;DHT22;24829;49.208;12.080;2022-10-16T04:38:25;13.90;99.90
39079;DHT22;24829;49.208;12.080;2022-10-16T04:40:51;13.90;99.90
39079;DHT22;24829;49.208;12.080;2022-10-16T04:43:17;13.90;99.90
39079;DHT22;24829;49.208;12.080;2022-10-16T04:45:43;13.90;99.90
39079;DHT22;24829;49.208;12.080;2022-10-16T04:48:09;13.90;99.90
39079;DHT22;24829;49.208;12.080;2022-10-16T04:50:34;13.90;99.90
39079;DHT22;24829;49.208;12.080;2022-10-16T04:53:00;13.80;99.90
39079;DHT22;24829;49.208;12.080;2022-10-16T04:55:25;13.90;99.90
39079;DHT22;24829;49.208;12.080;2022-10-16T04:57:51;13.90;99.90
39079;DHT22;24829;49.208;12.080;2022-10-16T05:00:16;13.90;99.90
39079;DHT22;24829;49.208;12.080;2022-10-16T05:02:42;13.90;99.90
39079;DHT22;24829;49.208;12.080;2022-10-16T05:05:08;13.90;99.90
39079;DHT22;24829;49.208;12.080;2022-10-16T05:07:33;13.90;99.90
39079;DHT22;24829;49.208;12.080;2022-10-16T05:09:59;13.90;99.90
39079;DHT22;24829;49.208;12.080;2022-10-16T05:12:24;14.00;99.90
39079;DHT22;24829;49.208;12.080;2022-10-16T05:14:50;13.90;99.90
39079;DHT22;24829;49.208;12.080;2022-10-16T05:17:15;13.90;99.90
39079;DHT22;24829;49.208;12.080;2022-10-16T05:19:41;13.90;99.90
39079;DHT22;24829;49.208;12.080;2022-10-16T05:22:07;13.90;99.90
39079;DHT22;24829;49.208;12.080;2022-10-16T05:24:32;13.90;99.90
39079;DHT22;24829;49.208;12.080;2022-10-16T05:26:58;14.00;99.90
39079;DHT22;24829;49.208;12.080;2022-10-16T05:29:23;14.00;99.90
39079;DHT22;24829;49.208;12.080;2022-10-16T05:31:53;13.90;99.90
39079;DHT22;24829;49.208;12.080;2022-10-16T05:34:19;14.00;99.90
39079;DHT22;24829;49.208;12.080;2022-10-16T05:36:44;13.90;99.90
39079;DHT22;24829;49.208;12.080;2022-10-16T05:39:11;14.00;99.90
39079;DHT22;24829;49.208;12.080;2022-10-16T05:41:37;14.00;99.90
39079;DHT22;24829;49.208;12.080;2022-10-16T05:44:06;14.00;99.90
39079;DHT22;24829;49.208;12.080;2022-10-16T05:46:32;13.90;99.90
39079;DHT22;24829;49.208;12.080;2022-10-16T05:48:58;14.00;99.90
39079;DHT22;24829;49.208;12.080;2022-10-16T05:51:23;14.00;99.90
39079;DHT22;24829;49.208;12.080;2022-10-16T05:53:50;14.00;99.90
39079;DHT22;24829;49.208;12.080;2022-10-16T05:56:17;14.10;99.90
39079;DHT22;24829;49.208;12.080;2022-10-16T05:58:42;14.10;99.90
39079;DHT22;24829;49.208;12.080;2022-10-16T06:01:17;14.00;99.90
39079;DHT22;24829;49.208;12.080;2022-10-16T06:03:43;14.10;99.90
39079;DHT22;24829;49.208;12.080;2022-10-16T06:06:16;14.10;99.90
39079;DHT22;24829;49.208;12.080;2022-10-16T06:08:43;14.20;99.90
39079;DHT22;24829;49.208;12.080;2022-10-16T06:11:12;14.20;99.90
39079;DHT22;24829;49.208;12.080;2022-10-16T06:13:38;14.10;99.90
39079;DHT22;24829;49.208;12.080;2022-10-16T06:16:04;14.10;99.90
39079;DHT22;24829;49.208;12.080;2022-10-16T06:18:30;14.10;99.90
39079;DHT22;24829;49.208;12.080;2022-10-16T06:20:56;14.10;99.90
39079;DHT22;24829;49.208;12.080;2022-10-16T06:23:23;14.10;99.90
39079;DHT22;24829;49.208;12.080;2022-10-16T06:25:48;14.10;99.90
39079;DHT22;24829;49.208;12.080;2022-10-16T06:28:15;14.20;99.90
39079;DHT22;24829;49.208;12.080;2022-10-16T06:30:41;14.20;99.90
39079;DHT22;24829;49.208;12.080;2022-10-16T06:33:09;14.20;99.90
39079;DHT22;24829;49.208;12.080;2022-10-16T06:35:35;14.30;99.90
39079;DHT22;24829;49.208;12.080;2022-10-16T06:38:01;14.30;99.90
39079;DHT22;24829;49.208;12.080;2022-10-16T06:40:26;14.40;99.90
39079;DHT22;24829;49.208;12.080;2022-10-16T06:42:55;14.40;99.90
39079;DHT22;24829;49.208;12.080;2022-10-16T06:45:20;14.50;99.90
39079;DHT22;24829;49.208;12.080;2022-10-16T06:47:46;14.50;99.90
39079;DHT22;24829;49.208;12.080;2022-10-16T06:50:11;14.50;99.90
39079;DHT22;24829;49.208;12.080;2022-10-16T06:52:37;14.50;99.90
39079;DHT22;24829;49.208;12.080;2022-10-16T06:55:03;14.50;99.90
39079;DHT22;24829;49.208;12.080;2022-10-16T06:57:29;14.60;99.90
39079;DHT22;24829;49.208;12.080;2022-10-16T06:59:54;14.60;99.90
39079;DHT22;24829;49.208;12.080;2022-10-16T07:02:20;14.70;99.90
39079;DHT22;24829;49.208;12.080;2022-10-16T07:04:45;14.70;99.90
39079;DHT22;24829;49.208;12.080;2022-10-16T07:07:11;14.60;99.90
39079;DHT22;24829;49.208;12.080;2022-10-16T07:09:36;14.60;99.90
39079;DHT22;24829;49.208;12.080;2022-10-16T07:12:02;14.60;99.90
39079;DHT22;24829;49.208;12.080;2022-10-16T07:14:28;14.60;99.90
39079;DHT22;24829;49.208;12.080;2022-10-16T07:16:55;14.60;99.90
39079;DHT22;24829;49.208;12.080;2022-10-16T07:19:21;14.70;99.90
39079;DHT22;24829;49.208;12.080;2022-10-16T07:21:46;14.70;99.90
39079;DHT22;24829;49.208;12.080;2022-10-16T07:24:14;14.80;99.90
39079;DHT22;24829;49.208;12.080;2022-10-16T07:26:41;14.80;99.90
39079;DHT22;24829;49.208;12.080;2022-10-16T07:29:13;14.90;99.90
39079;DHT22;24829;49.208;12.080;2022-10-16T07:31:39;14.90;99.90
39079;DHT22;24829;49.208;12.080;2022-10-16T07:34:05;14.90;99.90
39079;DHT22;24829;49.208;12.080;2022-10-16T07:36:30;15.00;99.90
39079;DHT22;24829;49.208;12.080;2022-10-16T07:38:56;14.90;99.90
39079;DHT22;24829;49.208;12.080;2022-10-16T07:41:22;15.00;99.90
39079;DHT22;24829;49.208;12.080;2022-10-16T07:43:52;15.00;99.90
39079;DHT22;24829;49.208;12.080;2022-10-16T07:46:19;15.00;99.90
39079;DHT22;24829;49.208;12.080;2022-10-16T07:48:45;15.10;99.90
39079;DHT22;24829;49.208;12.080;2022-10-16T07:51:14;15.10;99.90
39079;DHT22;24829;49.208;12.080;2022-10-16T07:53:40;15.20;99.90
39079;DHT22;24829;49.208;12.080;2022-10-16T07:56:06;15.30;99.90
39079;DHT22;24829;49.208;12.080;2022-10-16T07:58:33;15.30;99.90
39079;DHT22;24829;49.208;12.080;2022-10-16T08:01:03;15.30;99.90
39079;DHT22;24829;49.208;12.080;2022-10-16T08:03:30;15.40;99.90
39079;DHT22;24829;49.208;12.080;2022-10-16T08:05:57;15.40;99.90
39079;DHT22;24829;49.208;12.080;2022-10-16T08:08:23;15.50;99.90
39079;DHT22;24829;49.208;12.080;2022-10-16T08:10:48;15.60;99.90
39079;DHT22;24829;49.208;12.080;2022-10-16T08:13:15;15.60;99.90
39079;DHT22;24829;49.208;12.080;2022-10-16T08:15:41;15.70;99.90
39079;DHT22;24829;49.208;12.080;2022-10-16T08:18:07;15.80;99.90
39079;DHT22;24829;49.208;12.080;2022-10-16T08:20:34;15.80;99.90
39079;DHT22;24829;49.208;12.080;2022-10-16T08:23:00;15.90;99.90
39079;DHT22;24829;49.208;12.080;2022-10-16T08:25:26;16.00;99.90
39079;DHT22;24829;49.208;12.080;2022-10-16T08:27:52;16.00;99.90
39079;DHT22;24829;49.208;12.080;2022-10-16T08:30:19;16.10;99.90
39079;DHT22;24829;49.208;12.080;2022-10-16T08:32:45;16.10;99.90
39079;DHT22;24829;49.208;12.080;2022-10-16T08:35:12;16.10;99.90
39079;DHT22;24829;49.208;12.080;2022-10-16T08:37:38;16.10;99.90
39079;DHT22;24829;49.208;12.080;2022-10-16T08:40:05;16.00;99.90
39079;DHT22;24829;49.208;12.080;2022-10-16T08:50:30;16.10;99.90
39079;DHT22;24829;49.208;12.080;2022-10-16T08:52:57;16.10;99.90
39079;DHT22;24829;49.208;12.080;2022-10-16T08:55:37;16.20;99.90
39079;DHT22;24829;49.208;12.080;2022-10-16T08:58:12;16.30;99.90
39079;DHT22;24829;49.208;12.080;2022-10-16T09:00:39;16.40;99.90
39079;DHT22;24829;49.208;12.080;2022-10-16T09:06:10;16.50;99.90
39079;DHT22;24829;49.208;12.080;2022-10-16T09:11:37;16.40;99.90
39079;DHT22;24829;49.208;12.080;2022-10-16T09:23:14;16.60;99.90
39079;DHT22;24829;49.208;12.080;2022-10-16T09:25:42;16.80;99.90
39079;DHT22;24829;49.208;12.080;2022-10-16T09:28:08;17.00;99.90
39079;DHT22;24829;49.208;12.080;2022-10-16T09:30:35;17.10;99.90
39079;DHT22;24829;49.208;12.080;2022-10-16T09:33:01;17.10;99.90
39079;DHT22;24829;49.208;12.080;2022-10-16T09:38:04;17.20;99.90
39079;DHT22;24829;49.208;12.080;2022-10-16T09:40:38;17.20;99.90
39079;DHT22;24829;49.208;12.080;2022-10-16T09:43:19;17.30;99.90
39079;DHT22;24829;49.208;12.080;2022-10-16T09:46:02;17.40;99.90
39079;DHT22;24829;49.208;12.080;2022-10-16T09:48:37;17.50;99.90
39079;DHT22;24829;49.208;12.080;2022-10-16T09:51:04;17.60;99.90
39079;DHT22;24829;49.208;12.080;2022-10-16T09:53:44;17.70;99.90
39079;DHT22;24829;49.208;12.080;2022-10-16T09:56:20;17.80;99.90
39079;DHT22;24829;49.208;12.080;2022-10-16T09:58:51;17.80;99.90
39079;DHT22;24829;49.208;12.080;2022-10-16T10:01:18;17.90;99.90
39079;DHT22;24829;49.208;12.080;2022-10-16T10:03:45;17.80;99.90
39079;DHT22;24829;49.208;12.080;2022-10-16T10:11:42;18.00;99.90
39079;DHT22;24829;49.208;12.080;2022-10-16T10:14:25;18.10;99.90
39079;DHT22;24829;49.208;12.080;2022-10-16T10:17:01;18.20;99.90
39079;DHT22;24829;49.208;12.080;2022-10-16T10:19:28;18.20;99.90
39079;DHT22;24829;49.208;12.080;2022-10-16T10:21:53;18.30;99.90
39079;DHT22;24829;49.208;12.080;2022-10-16T10:24:19;18.40;99.90
39079;DHT22;24829;49.208;12.080;2022-10-16T10:27:00;18.50;99.90
39079;DHT22;24829;49.208;12.080;2022-10-16T10:35:45;18.60;99.90
39079;DHT22;24829;49.208;12.080;2022-10-16T10:41:15;18.70;99.90
39079;DHT22;24829;49.208;12.080;2022-10-16T10:46:50;19.00;99.90
39079;DHT22;24829;49.208;12.080;2022-10-16T10:49:45;19.00;99.90
39079;DHT22;24829;49.208;12.080;2022-10-16T10:54:50;18.90;99.90
39079;DHT22;24829;49.208;12.080;2022-10-16T10:57:37;18.80;99.90
39079;DHT22;24829;49.208;12.080;2022-10-16T11:07:41;18.70;99.90
39079;DHT22;24829;49.208;12.080;2022-10-16T11:10:16;18.70;99.90
39079;DHT22;24829;49.208;12.080;2022-10-16T11:12:47;18.70;99.90
39079;DHT22;24829;49.208;12.080;2022-10-16T11:15:21;18.70;99.90
39079;DHT22;24829;49.208;12.080;2022-10-16T11:18:00;18.60;99.90
39079;DHT22;24829;49.208;12.080;2022-10-16T11:20:32;18.70;99.90
39079;DHT22;24829;49.208;12.080;2022-10-16T11:25:39;18.60;99.90
39079;DHT22;24829;49.208;12.080;2022-10-16T11:30:47;18.60;99.90
39079;DHT22;24829;49.208;12.080;2022-10-16T11:35:51;18.60;99.90
39079;DHT22;24829;49.208;12.080;2022-10-16T11:38:31;18.60;99.90
39079;DHT22;24829;49.208;12.080;2022-10-16T11:41:27;18.70;99.90
39079;DHT22;24829;49.208;12.080;2022-10-16T11:44:14;18.70;99.90
39079;DHT22;24829;49.208;12.080;2022-10-16T11:46:46;18.70;99.90
39079;DHT22;24829;49.208;12.080;2022-10-16T11:49:16;18.70;99.90
39079;DHT22;24829;49.208;12.080;2022-10-16T11:51:50;18.80;99.90
39079;DHT22;24829;49.208;12.080;2022-10-16T11:56:48;18.90;99.90
39079;DHT22;24829;49.208;12.080;2022-10-16T12:02:43;19.00;99.90
39079;DHT22;24829;49.208;12.080;2022-10-16T12:04:59;18.90;99.90
39079;DHT22;24829;49.208;12.080;2022-10-16T12:07:35;18.90;99.90
39079;DHT22;24829;49.208;12.080;2022-10-16T12:10:31;18.80;99.90
39079;DHT22;24829;49.208;12.080;2022-10-16T12:13:02;18.70;99.90
39079;DHT22;24829;49.208;12.080;2022-10-16T12:15:31;18.80;99.90
39079;DHT22;24829;49.208;12.080;2022-10-16T12:17:57;18.90;99.90
39079;DHT22;24829;49.208;12.080;2022-10-16T12:20:31;18.90;99.90
39079;DHT22;24829;49.208;12.080;2022-10-16T12:23:02;19.00;99.90
39079;DHT22;24829;49.208;12.080;2022-10-16T12:25:31;18.90;99.90
39079;DHT22;24829;49.208;12.080;2022-10-16T12:28:21;19.00;99.90
39079;DHT22;24829;49.208;12.080;2022-10-16T12:30:55;19.20;99.90
39079;DHT22;24829;49.208;12.080;2022-10-16T12:33:25;19.30;99.90
39079;DHT22;24829;49.208;12.080;2022-10-16T12:35:52;19.40;99.90
39079;DHT22;24829;49.208;12.080;2022-10-16T12:38:20;19.50;99.90
39079;DHT22;24829;49.208;12.080;2022-10-16T12:41:02;19.50;99.90
39079;DHT22;24829;49.208;12.080;2022-10-16T12:46:41;19.50;99.90
39079;DHT22;24829;49.208;12.080;2022-10-16T12:49:22;19.60;99.90
39079;DHT22;24829;49.208;12.080;2022-10-16T12:51:49;19.60;99.90
39079;DHT22;24829;49.208;12.080;2022-10-16T12:54:30;19.60;99.90
39079;DHT22;24829;49.208;12.080;2022-10-16T13:06:14;19.70;99.90
39079;DHT22;24829;49.208;12.080;2022-10-16T13:11:41;19.80;99.90
39079;DHT22;24829;49.208;12.080;2022-10-16T13:17:41;19.90;99.90
39079;DHT22;24829;49.208;12.080;2022-10-16T13:28:13;20.00;99.90
39079;DHT22;24829;49.208;12.080;2022-10-16T13:30:44;20.00;99.90
39079;DHT22;24829;49.208;12.080;2022-10-16T13:36:01;20.00;99.90
39079;DHT22;24829;49.208;12.080;2022-10-16T13:38:29;20.10;99.90
39079;DHT22;24829;49.208;12.080;2022-10-16T13:41:01;20.10;99.90
39079;DHT22;24829;49.208;12.080;2022-10-16T13:43:34;20.10;99.90
39079;DHT22;24829;49.208;12.080;2022-10-16T13:46:03;20.10;99.90
39079;DHT22;24829;49.208;12.080;2022-10-16T13:48:30;20.10;99.90
39079;DHT22;24829;49.208;12.080;2022-10-16T13:51:16;20.20;99.90
39079;DHT22;24829;49.208;12.080;2022-10-16T13:53:43;20.20;99.90
39079;DHT22;24829;49.208;12.080;2022-10-16T13:56:16;20.20;99.90
39079;DHT22;24829;49.208;12.080;2022-10-16T13:58:43;20.20;99.90
39079;DHT22;24829;49.208;12.080;2022-10-16T14:01:19;20.30;99.90
39079;DHT22;24829;49.208;12.080;2022-10-16T14:03:46;20.30;99.90
39079;DHT22;24829;49.208;12.080;2022-10-16T14:06:16;20.20;99.90
39079;DHT22;24829;49.208;12.080;2022-10-16T14:08:44;20.20;99.90
39079;DHT22;24829;49.208;12.080;2022-10-16T14:13:47;20.10;99.90
39079;DHT22;24829;49.208;12.080;2022-10-16T14:16:21;20.10;99.90
39079;DHT22;24829;49.208;12.080;2022-10-16T14:21:20;20.00;99.90
39079;DHT22;24829;49.208;12.080;2022-10-16T14:23:46;20.00;99.90
39079;DHT22;24829;49.208;12.080;2022-10-16T14:26:14;19.90;99.90
39079;DHT22;24829;49.208;12.080;2022-10-16T14:28:42;19.90;99.90
39079;DHT22;24829;49.208;12.080;2022-10-16T14:33:49;19.90;99.90
39079;DHT22;24829;49.208;12.080;2022-10-16T14:36:15;19.90;99.90
39079;DHT22;24829;49.208;12.080;2022-10-16T14:41:23;19.90;99.90
39079;DHT22;24829;49.208;12.080;2022-10-16T14:43:52;19.80;99.90
39079;DHT22;24829;49.208;12.080;2022-10-16T14:46:44;19.80;99.90
39079;DHT22;24829;49.208;12.080;2022-10-16T14:51:35;19.80;99.90
39079;DHT22;24829;49.208;12.080;2022-10-16T14:54:01;19.80;99.90
39079;DHT22;24829;49.208;12.080;2022-10-16T14:56:40;19.80;99.90
39079;DHT22;24829;49.208;12.080;2022-10-16T14:59:13;19.70;99.90
39079;DHT22;24829;49.208;12.080;2022-10-16T15:01:42;19.70;99.90
39079;DHT22;24829;49.208;12.080;2022-10-16T15:04:10;19.60;99.90
39079;DHT22;24829;49.208;12.080;2022-10-16T15:06:36;19.60;99.90
39079;DHT22;24829;49.208;12.080;2022-10-16T15:09:03;19.60;99.90
39079;DHT22;24829;49.208;12.080;2022-10-16T15:11:28;19.50;99.90
39079;DHT22;24829;49.208;12.080;2022-10-16T15:13:56;19.50;99.90
39079;DHT22;24829;49.208;12.080;2022-10-16T15:16:22;19.40;99.90
39079;DHT22;24829;49.208;12.080;2022-10-16T15:18:47;19.40;99.90
39079;DHT22;24829;49.208;12.080;2022-10-16T15:21:30;19.40;99.90
39079;DHT22;24829;49.208;12.080;2022-10-16T15:23:56;19.30;99.90
39079;DHT22;24829;49.208;12.080;2022-10-16T15:26:23;19.30;99.90
39079;DHT22;24829;49.208;12.080;2022-10-16T15:28:49;19.30;99.90
39079;DHT22;24829;49.208;12.080;2022-10-16T15:31:14;19.20;99.90
39079;DHT22;24829;49.208;12.080;2022-10-16T15:33:40;19.20;99.90
39079;DHT22;24829;49.208;12.080;2022-10-16T15:36:06;19.10;99.90
39079;DHT22;24829;49.208;12.080;2022-10-16T15:38:32;19.00;99.90
39079;DHT22;24829;49.208;12.080;2022-10-16T15:40:58;19.00;99.90
39079;DHT22;24829;49.208;12.080;2022-10-16T15:43:23;18.90;99.90
39079;DHT22;24829;49.208;12.080;2022-10-16T15:46:03;18.80;99.90
39079;DHT22;24829;49.208;12.080;2022-10-16T15:48:30;18.80;99.90
39079;DHT22;24829;49.208;12.080;2022-10-16T15:50:55;18.70;99.90
39079;DHT22;24829;49.208;12.080;2022-10-16T15:53:21;18.60;99.90
39079;DHT22;24829;49.208;12.080;2022-10-16T15:55:47;18.60;99.90
39079;DHT22;24829;49.208;12.080;2022-10-16T15:58:13;18.50;99.90
39079;DHT22;24829;49.208;12.080;2022-10-16T16:00:38;18.40;99.90
39079;DHT22;24829;49.208;12.080;2022-10-16T16:03:04;18.40;99.90
39079;DHT22;24829;49.208;12.080;2022-10-16T16:05:29;18.30;99.90
39079;DHT22;24829;49.208;12.080;2022-10-16T16:07:58;18.30;99.90
39079;DHT22;24829;49.208;12.080;2022-10-16T16:10:24;18.20;99.90
39079;DHT22;24829;49.208;12.080;2022-10-16T16:12:50;18.10;99.90
39079;DHT22;24829;49.208;12.080;2022-10-16T16:15:19;18.10;99.90
39079;DHT22;24829;49.208;12.080;2022-10-16T16:17:44;18.00;99.90
39079;DHT22;24829;49.208;12.080;2022-10-16T16:20:10;18.00;99.90
39079;DHT22;24829;49.208;12.080;2022-10-16T16:22:36;17.90;99.90
39079;DHT22;24829;49.208;12.080;2022-10-16T16:25:02;17.90;99.90
39079;DHT22;24829;49.208;12.080;2022-10-16T16:27:28;17.90;99.90
39079;DHT22;24829;49.208;12.080;2022-10-16T16:29:55;17.80;99.90
39079;DHT22;24829;49.208;12.080;2022-10-16T16:32:21;17.80;99.90
39079;DHT22;24829;49.208;12.080;2022-10-16T16:34:47;17.70;99.90
39079;DHT22;24829;49.208;12.080;2022-10-16T16:37:13;17.70;99.90
39079;DHT22;24829;49.208;12.080;2022-10-16T16:39:38;17.60;99.90
39079;DHT22;24829;49.208;12.080;2022-10-16T16:42:04;17.60;99.90
39079;DHT22;24829;49.208;12.080;2022-10-16T16:44:31;17.50;99.90
39079;DHT22;24829;49.208;12.080;2022-10-16T16:46:57;17.50;99.90
39079;DHT22;24829;49.208;12.080;2022-10-16T16:49:23;17.40;99.90
39079;DHT22;24829;49.208;12.080;2022-10-16T16:51:48;17.30;99.90
39079;DHT22;24829;49.208;12.080;2022-10-16T16:54:14;17.30;99.90
39079;DHT22;24829;49.208;12.080;2022-10-16T16:56:40;17.20;99.90
39079;DHT22;24829;49.208;12.080;2022-10-16T16:59:18;17.20;99.90
39079;DHT22;24829;49.208;12.080;2022-10-16T17:01:45;17.20;99.90
39079;DHT22;24829;49.208;12.080;2022-10-16T17:04:11;17.20;99.90
39079;DHT22;24829;49.208;12.080;2022-10-16T17:06:37;17.10;99.90
39079;DHT22;24829;49.208;12.080;2022-10-16T17:09:06;17.10;99.90
39079;DHT22;24829;49.208;12.080;2022-10-16T17:11:32;17.10;99.90
39079;DHT22;24829;49.208;12.080;2022-10-16T17:13:59;17.10;99.90
39079;DHT22;24829;49.208;12.080;2022-10-16T17:16:34;17.00;99.90
39079;DHT22;24829;49.208;12.080;2022-10-16T17:19:08;17.00;99.90
39079;DHT22;24829;49.208;12.080;2022-10-16T17:21:35;17.00;99.90
39079;DHT22;24829;49.208;12.080;2022-10-16T17:24:02;17.00;99.90
39079;DHT22;24829;49.208;12.080;2022-10-16T17:26:28;16.90;99.90
39079;DHT22;24829;49.208;12.080;2022-10-16T17:28:59;16.90;99.90
39079;DHT22;24829;49.208;12.080;2022-10-16T17:31:28;16.90;99.90